Time;durP1;ratioP1;P1;durP2;ratioP2;P2;SDS_P1;SDS_P2;PMS_P1;PMS_P2;Temp;Humidity;BMP_temperature;BMP_pressure;BME280_temperature;BME280_humidity;BME280_pressure;Samples;Min_cycle;Max_cycle;Signal;HPM_P1;HPM_P2
2022/05/11 00:00:49;;;;;;;6.93;3.47;;;16.80;99.90;;;15.54;100.00;100359.44;4969453;28;20039;-84
2022/05/11 00:03:17;;;;;;;8.02;3.53;;;16.90;99.90;;;15.53;100.00;100349.53;4962300;28;20039;-84
2022/05/11 00:05:44;;;;;;;6.70;3.47;;;16.90;99.90;;;15.50;100.00;100366.44;4951666;29;20126;-84
2022/05/11 00:08:11;;;;;;;6.28;3.30;;;16.90;99.90;;;15.51;100.00;100362.63;4963209;28;20062;-84
2022/05/11 00:10:39;;;;;;;6.88;3.55;;;16.90;99.90;;;15.50;100.00;100360.97;4979852;23;20460;-90
2022/05/11 00:13:08;;;;;;;6.78;3.58;;;16.90;99.90;;;15.51;100.00;100365.38;4973997;28;20046;-90
2022/05/11 00:15:38;;;;;;;6.85;3.60;;;16.90;99.90;;;15.51;100.00;100357.13;4951739;29;20043;-89
2022/05/11 00:18:06;;;;;;;7.78;3.55;;;17.00;99.90;;;15.51;100.00;100351.66;4965506;28;20551;-91
2022/05/11 00:20:33;;;;;;;10.65;3.97;;;16.90;99.90;;;15.50;100.00;100351.88;4971109;28;20043;-91
2022/05/11 00:23:01;;;;;;;7.20;3.70;;;16.90;99.90;;;15.50;100.00;100346.38;4970849;28;20047;-91
2022/05/11 00:25:29;;;;;;;7.38;4.00;;;16.90;99.90;;;15.45;100.00;100347.88;4986280;28;20137;-91
2022/05/11 00:27:59;;;;;;;7.18;3.67;;;16.80;99.90;;;15.45;100.00;100347.06;4968578;28;20392;-90
2022/05/11 00:30:30;;;;;;;7.47;3.80;;;16.80;99.90;;;15.44;100.00;100348.13;4971118;28;20070;-91
2022/05/11 00:32:59;;;;;;;8.50;2.97;;;16.80;99.90;;;15.42;100.00;100337.38;4969942;28;20066;-91
2022/05/11 00:35:28;;;;;;;8.07;3.78;;;16.80;99.90;;;15.43;100.00;100329.97;4976221;28;20866;-91
2022/05/11 00:37:56;;;;;;;7.93;4.10;;;16.70;99.90;;;15.38;100.00;100324.31;4969666;28;20061;-91
2022/05/11 00:40:25;;;;;;;7.03;3.75;;;16.70;99.90;;;15.37;100.00;100314.44;4981707;28;20083;-90
2022/05/11 00:42:52;;;;;;;9.27;3.97;;;16.80;99.90;;;15.35;100.00;100314.63;4970482;28;20117;-91
2022/05/11 00:45:20;;;;;;;7.50;4.05;;;16.70;99.90;;;15.30;100.00;100311.72;4971196;28;20053;-91
2022/05/11 00:47:56;;;;;;;8.35;4.13;;;16.70;99.90;;;15.32;100.00;100309.59;4970628;28;20042;-91
2022/05/11 00:50:28;;;;;;;7.10;3.85;;;16.70;99.90;;;15.32;100.00;100303.28;4970415;28;20043;-91
2022/05/11 00:52:59;;;;;;;7.15;3.80;;;16.70;99.90;;;15.33;100.00;100305.78;4970878;28;20396;-90
2022/05/11 00:55:33;;;;;;;5.65;3.55;;;16.70;99.90;;;15.34;100.00;100298.41;4969978;28;20047;-91
2022/05/11 00:58:08;;;;;;;8.00;3.80;;;16.70;99.90;;;15.30;100.00;100300.75;4984457;28;20057;-91
2022/05/11 01:00:36;;;;;;;8.90;3.80;;;16.70;99.90;;;15.28;100.00;100307.53;4968696;28;20082;-92
2022/05/11 01:03:10;;;;;;;7.88;4.20;;;16.70;99.90;;;15.25;100.00;100303.31;4969615;28;20055;-90
2022/05/11 01:05:37;;;;;;;8.98;4.15;;;16.60;99.90;;;15.24;100.00;100305.22;4969881;28;20085;-91
2022/05/11 01:08:05;;;;;;;8.38;3.63;;;16.60;99.90;;;15.25;100.00;100298.69;4984460;28;20218;-92
2022/05/11 01:10:33;;;;;;;7.05;4.05;;;16.60;99.90;;;15.29;100.00;100306.44;4972787;28;20468;-90
2022/05/11 01:13:05;;;;;;;6.18;3.95;;;16.60;99.90;;;15.26;100.00;100302.25;4981240;28;20046;-91
2022/05/11 01:15:34;;;;;;;7.78;3.83;;;16.70;99.90;;;15.25;100.00;100304.16;4972319;28;20054;-90
2022/05/11 01:18:06;;;;;;;9.82;3.97;;;16.60;99.90;;;15.25;100.00;100295.94;4973550;28;20050;-92
2022/05/11 01:20:36;;;;;;;9.82;4.07;;;16.60;99.90;;;15.26;100.00;100288.53;4988061;28;20046;-91
2022/05/11 01:23:14;;;;;;;8.13;3.92;;;16.60;99.90;;;15.28;100.00;100285.59;4984324;28;20066;-91
2022/05/11 01:25:43;;;;;;;9.20;3.90;;;16.60;99.90;;;15.26;100.00;100280.31;4974585;28;20046;-91
2022/05/11 01:28:14;;;;;;;7.03;3.55;;;16.60;99.90;;;15.24;100.00;100271.47;4972633;28;20042;-91
2022/05/11 01:30:44;;;;;;;6.82;3.90;;;16.60;99.90;;;15.25;100.00;100265.78;4973415;28;20043;-91
2022/05/11 01:33:15;;;;;;;8.77;3.90;;;16.50;99.90;;;15.23;100.00;100261.56;4970546;28;20051;-90
2022/05/11 01:35:51;;;;;;;;;;;16.70;99.90;;;15.18;100.00;100267.72;4976029;28;20134;-91
2022/05/11 01:38:32;;;;;;;6.38;3.50;;;16.60;99.90;;;15.16;100.00;100264.34;4971439;28;19922;-88
2022/05/11 01:41:00;;;;;;;7.50;3.95;;;16.70;99.90;;;15.18;100.00;100255.91;4988851;28;20039;-88
2022/05/11 01:43:33;;;;;;;7.05;3.90;;;16.60;99.90;;;15.15;100.00;100265.41;4970407;28;20039;-88
2022/05/11 01:46:01;;;;;;;5.97;3.65;;;16.70;99.90;;;15.14;100.00;100258.25;4970918;28;20142;-88
2022/05/11 01:48:29;;;;;;;7.15;3.88;;;16.60;99.90;;;15.15;100.00;100253.59;4981758;28;20455;-88
2022/05/11 01:50:56;;;;;;;8.80;3.75;;;16.60;99.90;;;15.14;100.00;100241.81;4988354;28;20078;-87
2022/05/11 01:53:28;;;;;;;9.32;4.10;;;16.60;99.90;;;15.13;100.00;100245.59;4971481;28;20133;-87
2022/05/11 01:55:55;;;;;;;;;;;16.60;99.90;;;15.15;100.00;100243.47;4971327;28;20156;-87
2022/05/11 01:58:24;;;;;;;5.82;3.47;;;16.50;99.90;;;15.15;100.00;100237.16;4986824;28;19965;-87
2022/05/11 02:00:53;;;;;;;8.43;3.97;;;16.60;99.90;;;15.14;100.00;100247.28;4969145;28;20039;-87
2022/05/11 02:03:21;;;;;;;7.78;3.67;;;16.60;99.90;;;15.11;100.00;100231.28;4974602;28;20057;-87
2022/05/11 02:08:34;;;;;;;9.52;3.90;;;16.50;99.90;;;15.06;100.00;100225.66;4971419;28;20051;-88
2022/05/11 02:11:02;;;;;;;9.20;3.80;;;16.50;99.90;;;15.05;100.00;100227.53;4967351;28;20139;-87
2022/05/11 02:13:32;;;;;;;7.78;3.97;;;16.50;99.90;;;15.03;100.00;100224.16;4969978;28;20049;-88
2022/05/11 02:15:59;;;;;;;9.75;3.75;;;16.50;99.90;;;15.05;100.00;100221.22;4986786;28;20113;-87
2022/05/11 02:18:27;;;;;;;7.43;3.90;;;16.50;99.90;;;15.03;100.00;100223.34;4971752;28;20053;-87
2022/05/11 02:20:54;;;;;;;9.48;3.83;;;16.50;99.90;;;15.02;100.00;100218.91;4961457;28;20062;-88
2022/05/11 02:23:22;;;;;;;7.70;3.78;;;16.50;99.90;;;15.02;100.00;100221.63;4971338;28;20845;-88
2022/05/11 02:25:52;;;;;;;7.45;3.58;;;16.50;99.90;;;15.01;100.00;100219.97;4981342;28;20137;-88
2022/05/11 02:28:22;;;;;;;10.02;3.90;;;16.50;99.90;;;14.98;100.00;100225.88;4970090;28;20043;-88
2022/05/11 02:30:53;;;;;;;7.53;3.78;;;16.40;99.90;;;14.98;100.00;100220.41;4970761;28;20415;-87
2022/05/11 02:33:22;;;;;;;6.00;3.47;;;16.40;99.90;;;14.96;100.00;100222.53;4969160;28;20503;-86
2022/05/11 02:35:51;;;;;;;7.43;3.80;;;16.40;99.90;;;14.94;100.00;100210.94;4955294;28;20732;-88
2022/05/11 02:38:23;;;;;;;8.40;3.55;;;16.30;99.90;;;14.93;100.00;100207.38;4971031;28;20137;-87
2022/05/11 02:40:51;;;;;;;7.50;4.03;;;16.30;99.90;;;14.93;100.00;100207.38;4970249;28;20137;-87
2022/05/11 02:43:19;;;;;;;9.77;4.30;;;16.30;99.90;;;14.89;100.00;100208.03;4986554;28;20073;-87
2022/05/11 02:45:47;;;;;;;8.02;4.43;;;16.30;99.90;;;14.86;100.00;100207.41;4993949;28;20085;-88
2022/05/11 02:48:19;;;;;;;7.45;4.03;;;16.30;99.90;;;14.83;100.00;100196.91;4977608;28;20422;-88
2022/05/11 02:50:50;;;;;;;7.47;3.78;;;16.30;99.90;;;14.87;100.00;100205.53;4969735;28;20154;-87
2022/05/11 02:53:18;;;;;;;7.55;3.40;;;16.30;99.90;;;14.85;100.00;100199.44;4970906;28;20051;-88
2022/05/11 02:55:47;;;;;;;8.85;3.92;;;16.30;99.90;;;14.84;100.00;100198.56;4970470;28;20133;-88
2022/05/11 02:58:18;;;;;;;5.85;3.50;;;16.20;99.90;;;14.85;100.00;100194.78;4986646;28;20058;-88
2022/05/11 03:00:48;;;;;;;8.38;3.70;;;16.20;99.90;;;14.84;100.00;100198.56;4983087;28;20798;-87
2022/05/11 03:03:19;;;;;;;8.25;3.67;;;16.30;99.90;;;14.84;100.00;100198.56;4981270;28;20067;-88
2022/05/11 03:05:48;;;;;;;8.20;3.42;;;16.30;99.90;;;14.81;100.00;100193.56;4982531;28;20077;-88
2022/05/11 03:08:15;;;;;;;7.30;3.40;;;16.30;99.90;;;14.83;100.00;100185.94;4970061;28;20053;-88
2022/05/11 03:10:44;;;;;;;6.53;3.92;;;16.30;99.90;;;14.81;100.00;100193.56;4969750;28;20073;-88
2022/05/11 03:13:11;;;;;;;9.23;3.53;;;16.30;99.90;;;14.82;100.00;100192.47;4970950;28;20039;-87
2022/05/11 03:15:39;;;;;;;7.50;3.50;;;16.20;99.90;;;14.81;100.00;100187.22;4968576;28;20081;-88
2022/05/11 03:18:07;;;;;;;6.13;3.40;;;16.20;99.90;;;14.78;100.00;100193.16;4970422;28;20126;-89
2022/05/11 03:20:35;;;;;;;8.07;3.60;;;16.20;99.90;;;14.78;100.00;100193.16;4983666;28;20054;-89
2022/05/11 03:23:03;;;;;;;5.03;3.35;;;16.20;99.90;;;14.78;100.00;100172.06;4970498;28;20045;-89
2022/05/11 03:25:31;;;;;;;8.10;3.38;;;16.20;99.90;;;14.80;100.00;100169.13;4969645;28;20086;-89
2022/05/11 03:27:58;;;;;;;7.35;3.58;;;16.20;99.90;;;14.79;100.00;100170.16;4984160;28;20334;-89
2022/05/11 03:30:26;;;;;;;7.63;3.22;;;16.20;99.90;;;14.77;100.00;100170.38;4967096;28;20579;-88
2022/05/11 03:35:39;;;;;;;11.02;3.22;;;16.30;99.90;;;14.74;100.00;100164.53;4966320;28;20043;-88
2022/05/11 03:38:07;;;;;;;6.40;3.55;;;16.20;99.90;;;14.75;100.00;100160.72;4956465;28;20054;-88
2022/05/11 03:40:34;;;;;;;9.57;3.70;;;16.20;99.90;;;14.77;100.00;100158.59;4967028;28;20057;-89
2022/05/11 03:43:03;;;;;;;5.35;3.55;;;16.30;99.90;;;14.78;100.00;100152.06;4969018;28;20156;-88
2022/05/11 03:45:31;;;;;;;7.97;3.90;;;16.20;99.90;;;14.78;100.00;100150.16;4975495;28;20450;-88
2022/05/11 03:47:58;;;;;;;8.98;3.78;;;16.20;99.90;;;14.80;100.00;100141.72;4986809;28;20136;-89
2022/05/11 03:50:26;;;;;;;6.45;3.13;;;16.20;99.90;;;14.77;100.00;100148.47;4968425;28;20042;-89
2022/05/11 03:52:56;;;;;;;5.07;3.08;;;16.20;99.90;;;14.78;100.00;100152.88;4969070;28;20050;-88
2022/05/11 03:55:26;;;;;;;7.28;3.70;;;16.30;99.90;;;14.76;100.00;100152.28;4962044;28;20492;-88
2022/05/11 03:57:53;;;;;;;8.02;3.72;;;16.20;99.90;;;14.78;100.00;100150.16;4971612;28;20050;-90
2022/05/11 04:00:23;;;;;;;8.45;3.63;;;16.20;99.90;;;14.78;100.00;100141.09;4967481;28;20472;-88
2022/05/11 04:02:52;;;;;;;8.13;3.90;;;16.20;99.90;;;14.78;100.00;100139.19;4969337;28;20031;-88
2022/05/11 04:05:20;;;;;;;7.53;3.40;;;16.20;99.90;;;14.79;100.00;100150.97;4968463;28;20055;-88
2022/05/11 04:07:48;;;;;;;9.07;3.58;;;16.30;99.90;;;14.77;100.00;100137.50;4969774;28;20141;-90
2022/05/11 04:10:19;;;;;;;13.50;3.88;;;16.20;99.90;;;14.80;100.00;100136.25;4928211;28;1182792;-89
2022/05/11 04:12:46;;;;;;;9.20;3.45;;;16.30;99.90;;;14.80;100.00;100137.06;4967832;28;20050;-88
2022/05/11 04:15:15;;;;;;;8.35;3.17;;;16.30;99.90;;;14.78;100.00;100130.97;4969150;28;20138;-88
2022/05/11 04:17:43;;;;;;;7.32;3.70;;;16.30;99.90;;;14.77;100.00;100134.75;4968442;28;20137;-89
2022/05/11 04:20:14;;;;;;;7.18;3.65;;;16.30;99.90;;;14.79;100.00;100140.88;4968115;28;20046;-89
2022/05/11 04:22:42;;;;;;;;;;;16.30;99.90;;;14.78;100.00;100143.84;4969443;28;20066;-88
2022/05/11 04:25:14;;;;;;;7.05;3.65;;;16.30;99.90;;;14.79;100.00;100145.50;4969207;28;19926;-87
2022/05/11 04:27:42;;;;;;;6.40;3.10;;;16.30;99.90;;;14.79;100.00;100150.97;4966409;28;20142;-89
2022/05/11 04:30:11;;;;;;;8.52;3.80;;;16.30;99.90;;;14.79;100.00;100151.84;4968806;28;20146;-88
2022/05/11 04:32:39;;;;;;;7.10;3.70;;;16.30;99.90;;;14.78;100.00;100150.16;4962815;28;20105;-87
2022/05/11 04:35:08;;;;;;;7.53;3.45;;;16.30;99.90;;;14.78;100.00;100139.19;4969190;28;20039;-89
2022/05/11 04:37:35;;;;;;;6.90;3.55;;;16.30;99.90;;;14.81;100.00;100146.13;4970761;28;20046;-90
2022/05/11 04:40:04;;;;;;;7.35;3.65;;;16.30;99.90;;;14.82;100.00;100139.59;4969366;28;20117;-87
2022/05/11 04:42:32;;;;;;;9.02;3.70;;;16.40;99.90;;;14.82;100.00;100145.91;4971665;28;20051;-87
2022/05/11 04:45:01;;;;;;;8.63;3.80;;;16.40;99.90;;;14.83;100.00;100136.63;4984437;28;20129;-88
2022/05/11 04:47:28;;;;;;;6.20;3.83;;;16.40;99.90;;;14.86;100.00;100136.16;4972844;28;20101;-88
2022/05/11 04:49:57;;;;;;;7.07;3.80;;;16.40;99.90;;;14.89;100.00;100134.03;4970080;28;20531;-88
2022/05/11 04:52:24;;;;;;;7.55;3.40;;;16.50;99.90;;;14.92;100.00;100128.13;4983875;28;20094;-87
2022/05/11 04:54:51;;;;;;;7.88;3.40;;;16.50;99.90;;;14.95;100.00;100122.22;4971714;28;20074;-88
2022/05/11 04:57:20;;;;;;;10.10;3.60;;;16.60;99.90;;;15.00;100.00;100122.38;4971342;28;20074;-87
2022/05/11 04:59:49;;;;;;;9.93;4.30;;;16.60;99.90;;;15.03;100.00;100120.03;4971826;28;20046;-88
2022/05/11 05:02:20;;;;;;;6.75;3.90;;;16.70;99.90;;;15.08;100.00;100121.25;4967843;28;20400;-89
2022/05/11 05:04:47;;;;;;;;;;;16.80;99.90;;;15.14;100.00;100121.22;4973531;28;20133;-91
2022/05/11 05:07:15;;;;;;;11.13;3.60;;;16.90;99.90;;;15.18;100.00;100121.59;4973908;28;20430;-90
2022/05/11 05:09:43;;;;;;;9.70;3.75;;;16.90;99.90;;;15.20;100.00;100125.78;4969455;28;20605;-92
2022/05/11 05:12:41;;;;;;;9.40;3.70;;;17.00;99.90;;;15.25;100.00;100120.47;4976883;28;20049;-96
2022/05/11 05:15:11;;;;;;;10.35;3.55;;;17.10;99.90;;;15.28;100.00;100121.09;4969461;28;20770;-90
2022/05/11 05:17:40;;;;;;;11.75;3.67;;;17.10;99.90;;;15.31;100.00;100117.91;4973345;28;20065;-90
2022/05/11 05:20:10;;;;;;;7.82;3.78;;;17.20;99.90;;;15.35;99.35;100113.63;4970732;28;20050;-90
2022/05/11 05:22:38;;;;;;;9.35;3.60;;;17.20;99.90;;;15.39;99.75;100112.94;4972279;28;20503;-88
2022/05/11 05:25:07;;;;;;;10.35;3.90;;;17.30;99.90;;;15.44;100.00;100117.78;4974351;28;20047;-92
2022/05/11 05:27:35;;;;;;;9.50;3.58;;;17.40;99.90;;;15.50;99.03;100116.84;4984446;28;20046;-91
2022/05/11 05:32:48;;;;;;;9.88;4.00;;;17.60;99.90;;;15.56;99.67;100107.72;4973689;28;20058;-90
2022/05/11 05:35:19;;;;;;;5.90;3.40;;;17.60;99.90;;;15.60;98.01;100108.09;4973483;28;20039;-92
2022/05/11 05:37:46;;;;;;;8.50;4.57;;;17.70;99.90;;;15.64;97.84;100114.81;4973513;28;20551;-90
2022/05/11 05:40:14;;;;;;;6.32;3.35;;;17.70;99.90;;;15.66;97.81;100114.59;4973673;28;20039;-90
2022/05/11 05:42:43;;;;;;;10.43;4.50;;;17.80;99.90;;;15.72;97.99;100110.91;4971881;28;20050;-91
2022/05/11 05:45:12;;;;;;;11.85;3.80;;;17.90;99.90;;;15.73;98.98;100118.09;4977709;28;20038;-91
2022/05/11 05:47:41;;;;;;;9.52;3.55;;;17.90;99.90;;;15.73;96.92;100118.09;4996197;28;20042;-91
2022/05/11 05:50:13;;;;;;;11.48;3.53;;;17.80;99.80;;;15.73;97.28;100118.97;4973693;28;20081;-91
2022/05/11 05:52:40;;;;;;;8.60;3.50;;;17.80;99.90;;;15.74;98.07;100111.56;4981201;28;20039;-92
2022/05/11 05:55:09;;;;;;;12.38;3.45;;;17.70;99.90;;;15.76;95.29;100114.91;4972955;28;20046;-92
2022/05/11 05:57:37;;;;;;;7.43;3.45;;;17.70;99.80;;;15.78;96.85;100115.50;4968778;28;20046;-90
2022/05/11 06:00:07;;;;;;;11.43;3.78;;;17.80;99.90;;;15.82;96.62;100112.09;4978132;28;20054;-92
2022/05/11 06:02:34;;;;;;;9.38;4.03;;;17.80;99.90;;;15.87;96.67;100111.41;4974287;28;20419;-92
2022/05/11 06:05:01;;;;;;;9.48;3.75;;;17.90;99.90;;;15.92;96.28;100111.56;4988146;28;20074;-91
2022/05/11 06:07:30;;;;;;;10.85;3.95;;;18.00;99.90;;;15.95;97.29;100102.03;4971958;28;20073;-91
2022/05/11 06:09:58;;;;;;;9.32;4.38;;;18.10;99.90;;;15.96;96.75;100107.28;4989091;23;20050;-91
2022/05/11 06:12:25;;;;;;;13.13;4.80;;;18.20;99.50;;;16.03;96.75;100108.03;4985832;28;20107;-89
2022/05/11 06:14:52;;;;;;;12.52;5.28;;;18.30;99.10;;;16.15;97.00;100105.34;4985283;28;20069;-91
2022/05/11 06:17:23;;;;;;;10.68;5.82;;;18.30;98.90;;;16.29;97.09;100111.50;4989880;28;20050;-90
2022/05/11 06:19:51;;;;;;;15.20;7.03;;;18.40;99.10;;;16.32;95.94;100110.22;4990257;28;20042;-90
2022/05/11 06:22:18;;;;;;;13.15;7.30;;;18.50;99.00;;;16.38;96.05;100107.34;4988039;28;20132;-90
2022/05/11 06:24:47;;;;;;;14.10;6.45;;;18.60;98.40;;;16.48;95.55;100114.19;4972841;28;20047;-90
2022/05/11 06:27:17;;;;;;;12.77;6.78;;;18.70;98.20;;;16.52;95.76;100104.41;4979803;28;20521;-90
2022/05/11 06:29:52;;;;;;;13.38;6.95;;;18.70;98.30;;;16.49;97.06;100113.16;4987178;28;20495;-90
2022/05/11 06:32:20;;;;;;;16.10;6.30;;;18.80;98.40;;;16.66;95.92;100105.91;4972478;28;20055;-90
2022/05/11 06:34:48;;;;;;;11.75;7.30;;;18.90;98.20;;;16.77;94.65;100107.84;4975853;28;20113;-91
2022/05/11 06:37:15;;;;;;;13.55;7.43;;;18.90;97.50;;;16.89;95.04;100109.81;4990331;28;20046;-91
2022/05/11 06:39:42;;;;;;;11.45;7.35;;;19.10;97.80;;;16.86;94.37;100113.03;4987664;28;20145;-90
2022/05/11 06:42:13;;;;;;;11.68;6.60;;;19.10;97.20;;;16.89;95.59;100112.56;4989535;28;20444;-90
2022/05/11 06:44:42;;;;;;;14.15;7.80;;;19.20;97.50;;;16.93;95.99;100105.50;4990285;28;20142;-90
2022/05/11 06:47:09;;;;;;;16.45;7.60;;;19.30;97.50;;;17.06;94.30;100116.28;4972798;28;20101;-91
2022/05/11 06:49:36;;;;;;;14.82;6.70;;;19.30;96.80;;;17.13;94.97;100118.91;5006551;28;20116;-91
2022/05/11 06:52:04;;;;;;;15.45;7.18;;;19.40;97.00;;;17.23;95.91;100118.31;5008959;28;20066;-91
2022/05/11 07:00:05;;;;;;;15.20;7.75;;;19.60;95.90;;;17.36;94.48;100115.34;4990002;28;20046;-92
2022/05/11 07:02:33;;;;;;;14.38;8.00;;;19.70;96.60;;;17.57;93.40;100122.13;4989123;28;20077;-92
2022/05/11 07:05:00;;;;;;;16.23;7.85;;;19.70;96.70;;;17.71;93.63;100117.25;4972417;28;20051;-92
2022/05/11 07:07:28;;;;;;;16.55;8.10;;;19.80;96.50;;;17.79;91.29;100116.84;4988832;28;20182;-92
2022/05/11 07:09:56;;;;;;;13.93;8.23;;;19.90;95.70;;;17.74;91.63;100122.25;4986703;28;20081;-89
2022/05/11 07:12:32;;;;;;;16.25;7.65;;;20.00;95.50;;;17.70;90.48;100118.31;4990393;28;20506;-90
2022/05/11 07:15:00;;;;;;;19.92;8.48;;;20.00;94.70;;;17.65;92.32;100120.94;4977135;28;20043;-92
2022/05/11 07:17:34;;;;;;;19.60;9.25;;;20.10;94.90;;;17.76;91.29;100120.09;4978197;28;20050;-91
2022/05/11 07:20:05;;;;;;;15.60;7.93;;;20.10;94.70;;;17.73;91.36;100115.91;4987929;28;20057;-89
2022/05/11 07:22:33;;;;;;;19.33;9.05;;;20.10;94.90;;;17.79;91.64;100116.84;4989037;28;20038;-89
2022/05/11 07:25:00;;;;;;;14.50;8.18;;;20.10;94.90;;;17.76;91.99;100114.56;4982059;28;20058;-89
2022/05/11 07:27:29;;;;;;;16.30;8.25;;;20.10;95.00;;;17.69;93.17;100119.41;4973903;28;20046;-89
2022/05/11 07:29:57;;;;;;;13.95;7.88;;;20.10;94.90;;;17.80;93.19;100115.78;4987452;28;20039;-89
2022/05/11 07:32:27;;;;;;;13.00;7.38;;;20.20;95.10;;;17.90;88.57;100109.69;4988502;28;20046;-90
2022/05/11 07:34:54;;;;;;;20.05;7.47;;;20.20;92.90;;;17.95;86.01;100113.41;5005814;28;20085;-90
2022/05/11 07:37:22;;;;;;;12.85;6.70;;;20.20;91.50;;;18.01;88.12;100116.22;4988209;28;20068;-90
2022/05/11 07:39:51;;;;;;;13.90;6.88;;;20.20;92.80;;;18.09;87.28;100118.63;4969438;28;20507;-90
2022/05/11 07:42:19;;;;;;;15.32;6.78;;;20.30;92.70;;;18.07;88.39;100115.28;4978051;28;20043;-90
2022/05/11 07:44:47;;;;;;;11.85;6.50;;;20.30;92.80;;;17.95;89.05;100118.91;4988169;28;20137;-89
2022/05/11 07:47:15;;;;;;;18.77;6.35;;;20.30;93.30;;;17.92;88.03;100111.13;4987793;28;20056;-90
2022/05/11 07:49:42;;;;;;;12.95;5.80;;;20.30;92.70;;;18.03;87.33;100109.41;4985659;28;20096;-89
2022/05/11 07:52:10;;;;;;;11.20;5.72;;;20.30;92.20;;;18.12;86.61;100107.09;5014999;28;20093;-90
2022/05/11 07:54:41;;;;;;;11.73;4.80;;;20.30;91.80;;;18.21;85.37;100111.16;4988300;28;20721;-90
2022/05/11 07:59:57;;;;;;;10.10;4.25;;;20.40;91.70;;;17.91;87.84;100112.19;5007229;28;20156;-89
2022/05/11 08:02:27;;;;;;;11.30;4.88;;;20.30;92.20;;;18.09;88.06;100107.59;4985950;28;20042;-89
2022/05/11 08:04:58;;;;;;;11.90;4.40;;;20.30;92.70;;;18.09;87.24;100113.13;4982737;28;20529;-89
2022/05/11 08:07:28;;;;;;;8.13;3.20;;;20.40;92.40;;;18.22;86.83;100112.84;4989536;28;20054;-90
2022/05/11 08:09:59;;;;;;;7.15;3.30;;;20.40;91.80;;;18.32;86.42;100107.50;4987598;28;20113;-92
2022/05/11 08:12:27;;;;;;;7.97;3.20;;;20.50;92.30;;;18.35;85.29;100097.91;4991333;28;20129;-90
2022/05/11 08:14:56;;;;;;;9.25;3.70;;;20.50;91.30;;;18.26;85.72;100102.13;4993632;28;20665;-92
2022/05/11 08:17:26;;;;;;;8.30;3.25;;;20.50;91.30;;;18.13;85.04;100115.13;4988460;28;20070;-92
2022/05/11 08:19:54;;;;;;;7.07;2.90;;;20.50;90.70;;;18.08;87.10;100100.41;4991863;28;20502;-91
2022/05/11 08:22:21;;;;;;;10.07;2.78;;;20.50;91.70;;;18.21;84.90;100100.13;4988037;28;20046;-91
2022/05/11 08:24:49;;;;;;;7.63;2.90;;;20.50;90.30;;;18.08;86.93;100095.72;4993070;28;20046;-92
2022/05/11 08:27:18;;;;;;;8.90;2.92;;;20.50;91.60;;;18.09;87.28;100096.59;4992280;28;20073;-91
2022/05/11 08:35:16;;;;;;;7.68;2.92;;;20.50;92.30;;;18.14;87.90;100096.69;5007740;28;20050;-91
2022/05/11 08:37:44;;;;;;;4.60;2.33;;;20.50;92.30;;;18.15;88.18;100103.88;4984232;28;20134;-92
2022/05/11 08:40:20;;;;;;;5.93;2.33;;;20.40;92.60;;;18.39;86.21;100095.50;4993828;28;20081;-90
2022/05/11 08:42:48;;;;;;;4.63;2.20;;;20.50;91.70;;;18.40;82.80;100099.94;4990768;28;20130;-91
2022/05/11 08:45:15;;;;;;;7.25;2.47;;;20.50;90.60;;;18.41;85.58;100101.59;4973267;28;20475;-92
2022/05/11 08:47:48;;;;;;;5.55;2.30;;;20.60;91.50;;;18.29;86.61;100099.72;4980531;28;20034;-91
2022/05/11 08:50:19;;;;;;;7.50;2.40;;;20.60;92.00;;;18.42;85.33;100095.84;4992188;28;20554;-91
2022/05/11 08:52:57;;;;;;;5.45;2.50;;;20.50;91.30;;;18.47;86.25;100104.22;4991511;28;20499;-90
2022/05/11 08:55:38;;;;;;;5.65;2.38;;;20.60;92.20;;;18.32;86.77;100099.25;4994034;28;20483;-91
2022/05/11 08:58:12;;;;;;;5.80;2.63;;;20.50;92.30;;;18.32;87.36;100096.50;5007882;28;20138;-92
2022/05/11 09:00:42;;;;;;;16.50;3.03;;;20.50;92.60;;;18.31;85.18;100094.81;4992422;28;20583;-92
2022/05/11 09:03:31;;;;;;;11.18;2.78;;;20.50;92.30;;;18.48;84.51;100099.53;4991347;28;20070;-93
2022/05/11 09:06:00;;;;;;;7.50;2.72;;;20.60;91.60;;;18.34;86.97;100105.34;4990990;28;20414;-90
2022/05/11 09:08:29;;;;;;;4.30;2.50;;;20.50;92.30;;;18.22;87.27;100095.44;4995752;28;20051;-91
2022/05/11 09:10:58;;;;;;;8.07;2.72;;;20.50;92.30;;;18.34;85.88;100087.97;5007785;28;20046;-91
2022/05/11 09:13:27;;;;;;;6.78;2.60;;;20.50;91.80;;;18.44;86.34;100092.84;4974218;28;20051;-90
2022/05/11 09:16:22;;;;;;;9.15;2.80;;;20.50;92.30;;;18.49;85.17;100092.94;4989406;28;20151;-95
2022/05/11 09:19:27;;;;;;;5.35;2.33;;;20.60;91.90;;;18.39;86.71;100084.47;4974450;28;20039;-92
2022/05/11 09:22:29;;;;;;;4.80;2.13;;;20.50;92.90;;;18.36;86.41;100085.81;4992250;28;20045;-93
2022/05/11 09:25:40;;;;;;;8.05;2.40;;;20.50;92.60;;;18.35;87.54;100071.22;4983513;28;20074;-92
2022/05/11 09:28:23;;;;;;;6.40;2.75;;;20.50;92.90;;;18.37;87.71;100081.97;4985877;28;20072;-94
2022/05/11 09:31:03;;;;;;;6.22;2.60;;;20.50;93.00;;;18.36;87.18;100081.13;4991302;28;20042;-92
2022/05/11 09:33:34;;;;;;;7.95;2.40;;;20.40;92.40;;;18.38;87.36;100067.13;4993377;28;20041;-91
2022/05/11 09:36:03;;;;;;;6.30;2.67;;;20.50;92.80;;;18.31;87.60;100071.94;4989761;28;20116;-91
2022/05/11 09:38:39;;;;;;;10.40;3.30;;;20.50;92.90;;;18.49;85.82;100066.22;4991239;28;20053;-91
2022/05/11 09:41:21;;;;;;;7.00;2.80;;;20.50;92.10;;;18.57;86.53;100067.75;4992541;28;20074;-91
2022/05/11 09:43:51;;;;;;;8.02;3.50;;;20.50;92.50;;;18.62;86.35;100073.34;4986238;28;20034;-91
2022/05/11 09:46:23;;;;;;;6.90;3.38;;;20.60;92.90;;;18.63;86.17;100075.00;4980465;28;20043;-91
2022/05/11 09:49:04;;;;;;;6.45;3.38;;;20.60;92.50;;;18.65;85.08;100061.81;4973121;28;20051;-92
2022/05/11 09:51:41;;;;;;;7.10;3.05;;;20.60;92.10;;;18.64;85.24;100060.16;4973404;28;20508;-90
2022/05/11 09:54:32;;;;;;;6.22;2.92;;;20.60;92.30;;;18.64;85.53;100062.91;4999855;28;20213;-91
2022/05/11 09:57:03;;;;;;;7.13;2.80;;;20.60;92.50;;;18.54;86.46;100063.56;4990929;28;20062;-92
2022/05/11 09:59:37;;;;;;;5.75;2.88;;;20.60;92.40;;;18.44;87.39;100059.78;4987472;28;20045;-90
2022/05/11 10:02:24;;;;;;;6.70;3.15;;;20.60;93.00;;;18.50;86.23;100067.06;4989393;28;20495;-91
2022/05/11 10:04:59;;;;;;;5.72;3.20;;;20.50;92.50;;;18.43;87.17;100058.09;4995993;28;20471;-91
2022/05/11 10:07:36;;;;;;;8.15;3.28;;;20.50;92.60;;;18.68;84.82;100061.31;5008170;28;20054;-91
2022/05/11 10:10:13;;;;;;;7.10;3.22;;;20.50;92.20;;;18.46;87.08;100063.13;4973415;28;20050;-91
2022/05/11 10:12:43;;;;;;;12.40;3.58;;;20.50;93.00;;;18.36;87.84;100052.75;4973037;28;20078;-91
2022/05/11 10:24:11;;;;;;;8.20;3.60;;;20.70;92.00;;;18.82;85.11;100052.75;4974688;28;20399;-92
2022/05/11 10:26:47;;;;;;;10.90;3.53;;;20.60;92.30;;;18.72;84.77;100040.44;4991435;28;20053;-92
2022/05/11 10:29:31;;;;;;;7.95;3.78;;;20.60;92.00;;;18.67;84.41;100048.59;5005297;28;20416;-92
2022/05/11 10:32:10;;;;;;;11.05;3.85;;;20.60;91.70;;;18.63;85.34;100030.06;4987171;28;20046;-91
2022/05/11 10:34:51;;;;;;;10.38;3.80;;;20.60;92.30;;;18.59;85.70;100029.72;4991029;28;20152;-92
2022/05/11 10:37:32;;;;;;;6.47;3.17;;;20.60;92.30;;;18.88;82.93;100032.44;4996369;28;20101;-92
2022/05/11 10:40:20;;;;;;;10.05;3.78;;;20.60;90.80;;;19.03;81.74;100037.38;4989940;28;20049;-88
2022/05/11 10:48:35;;;;;;;10.35;3.72;;;20.70;90.70;;;18.85;84.18;100027.41;5664471;23;20434;-91
2022/05/11 11:38:30;;;;;;;9.07;3.53;;;20.90;88.90;;;19.24;78.69;99980.56;6087042;23;20082;-91
2022/05/11 11:42:18;;;;;;;;;;;;;;;;;;;;;
2022/05/11 11:45:53;;;;;;;8.15;3.60;;;21.10;88.10;;;19.25;80.46;99977.56;4940931;29;20044;-93
2022/05/11 11:49:18;;;;;;;;;;;;;;;;;;;;;
2022/05/11 12:22:47;;;;;;;;;;;;;;;;;;;;;
2022/05/11 12:39:07;;;;;;;6.53;3.25;;;20.80;89.00;;;19.26;77.66;99925.97;4767462;30;20113;-93